sensor_id;sensor_type;location;lat;lon;timestamp;P1;durP1;ratioP1;P2;durP2;ratioP2
7128;SDS011;3606;52.930;8.644;2022-11-22T00:02:03;25.63;;;13.97;;
7128;SDS011;3606;52.930;8.644;2022-11-22T00:04:29;23.63;;;13.90;;
7128;SDS011;3606;52.930;8.644;2022-11-22T00:06:55;21.87;;;13.33;;
7128;SDS011;3606;52.930;8.644;2022-11-22T00:09:20;20.53;;;12.83;;
7128;SDS011;3606;52.930;8.644;2022-11-22T00:11:46;19.70;;;12.20;;
7128;SDS011;3606;52.930;8.644;2022-11-22T00:14:11;26.57;;;13.03;;
7128;SDS011;3606;52.930;8.644;2022-11-22T00:16:37;18.77;;;12.80;;
7128;SDS011;3606;52.930;8.644;2022-11-22T00:19:02;20.30;;;12.57;;
7128;SDS011;3606;52.930;8.644;2022-11-22T00:21:28;17.10;;;12.03;;
7128;SDS011;3606;52.930;8.644;2022-11-22T00:23:54;21.13;;;12.60;;
7128;SDS011;3606;52.930;8.644;2022-11-22T00:26:21;20.70;;;12.73;;
7128;SDS011;3606;52.930;8.644;2022-11-22T00:28:47;20.27;;;11.70;;
7128;SDS011;3606;52.930;8.644;2022-11-22T00:31:13;21.43;;;12.10;;
7128;SDS011;3606;52.930;8.644;2022-11-22T00:33:38;18.23;;;12.10;;
7128;SDS011;3606;52.930;8.644;2022-11-22T00:36:04;20.27;;;11.87;;
7128;SDS011;3606;52.930;8.644;2022-11-22T00:38:30;17.90;;;12.10;;
7128;SDS011;3606;52.930;8.644;2022-11-22T00:40:55;23.37;;;13.03;;
7128;SDS011;3606;52.930;8.644;2022-11-22T00:43:21;17.77;;;11.57;;
7128;SDS011;3606;52.930;8.644;2022-11-22T00:45:46;19.73;;;11.70;;
7128;SDS011;3606;52.930;8.644;2022-11-22T00:48:12;19.30;;;12.10;;
7128;SDS011;3606;52.930;8.644;2022-11-22T00:50:37;18.60;;;12.30;;
7128;SDS011;3606;52.930;8.644;2022-11-22T00:53:03;18.13;;;12.43;;
7128;SDS011;3606;52.930;8.644;2022-11-22T00:55:29;20.50;;;12.73;;
7128;SDS011;3606;52.930;8.644;2022-11-22T00:57:54;18.63;;;11.63;;
7128;SDS011;3606;52.930;8.644;2022-11-22T01:00:20;21.60;;;12.30;;
7128;SDS011;3606;52.930;8.644;2022-11-22T01:02:46;21.27;;;11.37;;
7128;SDS011;3606;52.930;8.644;2022-11-22T01:05:11;19.33;;;12.10;;
7128;SDS011;3606;52.930;8.644;2022-11-22T01:07:37;19.27;;;12.00;;
7128;SDS011;3606;52.930;8.644;2022-11-22T01:10:03;16.63;;;11.57;;
7128;SDS011;3606;52.930;8.644;2022-11-22T01:12:28;21.53;;;12.00;;
7128;SDS011;3606;52.930;8.644;2022-11-22T01:14:54;18.33;;;12.07;;
7128;SDS011;3606;52.930;8.644;2022-11-22T01:17:20;21.70;;;12.20;;
7128;SDS011;3606;52.930;8.644;2022-11-22T01:19:45;19.27;;;11.60;;
7128;SDS011;3606;52.930;8.644;2022-11-22T01:22:11;18.27;;;12.80;;
7128;SDS011;3606;52.930;8.644;2022-11-22T01:24:36;20.03;;;12.73;;
7128;SDS011;3606;52.930;8.644;2022-11-22T01:27:02;17.23;;;11.00;;
7128;SDS011;3606;52.930;8.644;2022-11-22T01:29:28;20.80;;;11.77;;
7128;SDS011;3606;52.930;8.644;2022-11-22T01:31:53;21.33;;;11.90;;
7128;SDS011;3606;52.930;8.644;2022-11-22T01:34:19;20.10;;;12.57;;
7128;SDS011;3606;52.930;8.644;2022-11-22T01:36:44;23.87;;;12.37;;
7128;SDS011;3606;52.930;8.644;2022-11-22T01:39:10;19.90;;;12.50;;
7128;SDS011;3606;52.930;8.644;2022-11-22T01:41:35;17.90;;;11.50;;
7128;SDS011;3606;52.930;8.644;2022-11-22T01:52:30;25.73;;;13.20;;
7128;SDS011;3606;52.930;8.644;2022-11-22T01:54:59;20.97;;;12.13;;
7128;SDS011;3606;52.930;8.644;2022-11-22T01:57:30;27.23;;;13.27;;
7128;SDS011;3606;52.930;8.644;2022-11-22T02:00:00;23.60;;;13.80;;
7128;SDS011;3606;52.930;8.644;2022-11-22T02:02:29;21.50;;;13.03;;
7128;SDS011;3606;52.930;8.644;2022-11-22T02:04:55;23.43;;;13.53;;
7128;SDS011;3606;52.930;8.644;2022-11-22T02:07:28;23.63;;;14.07;;
7128;SDS011;3606;52.930;8.644;2022-11-22T02:09:59;26.17;;;14.13;;
7128;SDS011;3606;52.930;8.644;2022-11-22T02:12:28;23.97;;;13.90;;
7128;SDS011;3606;52.930;8.644;2022-11-22T02:14:55;23.60;;;13.33;;
7128;SDS011;3606;52.930;8.644;2022-11-22T02:17:23;24.03;;;14.13;;
7128;SDS011;3606;52.930;8.644;2022-11-22T02:19:50;25.70;;;13.53;;
7128;SDS011;3606;52.930;8.644;2022-11-22T02:22:33;26.63;;;14.73;;
7128;SDS011;3606;52.930;8.644;2022-11-22T02:25:24;26.63;;;14.37;;
7128;SDS011;3606;52.930;8.644;2022-11-22T02:28:08;21.53;;;13.17;;
7128;SDS011;3606;52.930;8.644;2022-11-22T02:30:36;24.63;;;14.03;;
7128;SDS011;3606;52.930;8.644;2022-11-22T02:33:02;27.73;;;14.27;;
7128;SDS011;3606;52.930;8.644;2022-11-22T02:35:28;27.13;;;14.10;;
7128;SDS011;3606;52.930;8.644;2022-11-22T02:37:55;26.23;;;14.47;;
7128;SDS011;3606;52.930;8.644;2022-11-22T02:40:23;22.90;;;14.00;;
7128;SDS011;3606;52.930;8.644;2022-11-22T02:43:10;26.50;;;14.57;;
7128;SDS011;3606;52.930;8.644;2022-11-22T02:45:40;28.90;;;15.03;;
7128;SDS011;3606;52.930;8.644;2022-11-22T02:48:10;30.50;;;15.87;;
7128;SDS011;3606;52.930;8.644;2022-11-22T02:50:37;31.83;;;14.60;;
7128;SDS011;3606;52.930;8.644;2022-11-22T02:53:03;27.20;;;14.47;;
7128;SDS011;3606;52.930;8.644;2022-11-22T02:55:30;32.43;;;15.93;;
7128;SDS011;3606;52.930;8.644;2022-11-22T02:57:55;33.07;;;15.77;;
7128;SDS011;3606;52.930;8.644;2022-11-22T03:00:21;29.73;;;15.53;;
7128;SDS011;3606;52.930;8.644;2022-11-22T03:02:47;31.90;;;16.37;;
7128;SDS011;3606;52.930;8.644;2022-11-22T03:05:13;29.77;;;16.13;;
7128;SDS011;3606;52.930;8.644;2022-11-22T03:07:39;33.20;;;15.90;;
7128;SDS011;3606;52.930;8.644;2022-11-22T03:10:05;33.77;;;16.93;;
7128;SDS011;3606;52.930;8.644;2022-11-22T03:12:30;38.87;;;16.70;;
7128;SDS011;3606;52.930;8.644;2022-11-22T03:14:56;41.63;;;17.53;;
7128;SDS011;3606;52.930;8.644;2022-11-22T03:17:21;37.27;;;16.97;;
7128;SDS011;3606;52.930;8.644;2022-11-22T03:19:47;37.47;;;18.23;;
7128;SDS011;3606;52.930;8.644;2022-11-22T03:22:13;38.27;;;18.27;;
7128;SDS011;3606;52.930;8.644;2022-11-22T03:24:39;38.20;;;17.97;;
7128;SDS011;3606;52.930;8.644;2022-11-22T03:27:05;44.43;;;18.53;;
7128;SDS011;3606;52.930;8.644;2022-11-22T03:29:30;48.97;;;18.40;;
7128;SDS011;3606;52.930;8.644;2022-11-22T03:31:56;35.43;;;17.17;;
7128;SDS011;3606;52.930;8.644;2022-11-22T03:34:21;45.23;;;18.50;;
7128;SDS011;3606;52.930;8.644;2022-11-22T03:36:47;39.43;;;18.63;;
7128;SDS011;3606;52.930;8.644;2022-11-22T03:39:13;40.33;;;18.87;;
7128;SDS011;3606;52.930;8.644;2022-11-22T03:41:38;36.87;;;18.93;;
7128;SDS011;3606;52.930;8.644;2022-11-22T03:44:04;45.73;;;19.63;;
7128;SDS011;3606;52.930;8.644;2022-11-22T03:46:30;40.50;;;18.90;;
7128;SDS011;3606;52.930;8.644;2022-11-22T03:48:55;41.37;;;19.40;;
7128;SDS011;3606;52.930;8.644;2022-11-22T03:51:21;45.83;;;19.67;;
7128;SDS011;3606;52.930;8.644;2022-11-22T03:53:46;41.77;;;19.70;;
7128;SDS011;3606;52.930;8.644;2022-11-22T03:56:12;46.43;;;20.77;;
7128;SDS011;3606;52.930;8.644;2022-11-22T03:58:37;38.07;;;19.63;;
7128;SDS011;3606;52.930;8.644;2022-11-22T04:01:03;45.20;;;21.83;;
7128;SDS011;3606;52.930;8.644;2022-11-22T04:03:29;56.00;;;22.10;;
7128;SDS011;3606;52.930;8.644;2022-11-22T04:05:55;45.33;;;21.77;;
7128;SDS011;3606;52.930;8.644;2022-11-22T04:08:20;53.30;;;22.97;;
7128;SDS011;3606;52.930;8.644;2022-11-22T04:10:49;47.40;;;21.43;;
7128;SDS011;3606;52.930;8.644;2022-11-22T04:13:15;40.90;;;19.47;;
7128;SDS011;3606;52.930;8.644;2022-11-22T04:15:41;46.93;;;21.17;;
7128;SDS011;3606;52.930;8.644;2022-11-22T04:18:10;51.10;;;22.37;;
7128;SDS011;3606;52.930;8.644;2022-11-22T04:20:36;41.43;;;20.40;;
7128;SDS011;3606;52.930;8.644;2022-11-22T04:23:21;42.80;;;21.40;;
7128;SDS011;3606;52.930;8.644;2022-11-22T04:25:49;44.33;;;21.77;;
7128;SDS011;3606;52.930;8.644;2022-11-22T04:28:17;48.17;;;20.73;;
7128;SDS011;3606;52.930;8.644;2022-11-22T04:30:48;43.17;;;22.00;;
7128;SDS011;3606;52.930;8.644;2022-11-22T04:33:32;44.20;;;20.27;;
7128;SDS011;3606;52.930;8.644;2022-11-22T04:35:58;43.70;;;21.63;;
7128;SDS011;3606;52.930;8.644;2022-11-22T04:38:24;46.23;;;21.67;;
7128;SDS011;3606;52.930;8.644;2022-11-22T04:40:49;48.60;;;21.93;;
7128;SDS011;3606;52.930;8.644;2022-11-22T04:43:25;43.30;;;21.57;;
7128;SDS011;3606;52.930;8.644;2022-11-22T04:46:12;43.37;;;20.73;;
7128;SDS011;3606;52.930;8.644;2022-11-22T04:48:38;39.60;;;20.27;;
7128;SDS011;3606;52.930;8.644;2022-11-22T04:51:04;47.67;;;23.03;;
7128;SDS011;3606;52.930;8.644;2022-11-22T04:53:50;52.93;;;22.63;;
7128;SDS011;3606;52.930;8.644;2022-11-22T04:56:15;42.07;;;22.07;;
7128;SDS011;3606;52.930;8.644;2022-11-22T04:58:42;37.67;;;19.87;;
7128;SDS011;3606;52.930;8.644;2022-11-22T05:01:07;37.53;;;19.90;;
7128;SDS011;3606;52.930;8.644;2022-11-22T05:03:33;44.50;;;19.80;;
7128;SDS011;3606;52.930;8.644;2022-11-22T05:06:03;39.23;;;19.73;;
7128;SDS011;3606;52.930;8.644;2022-11-22T05:08:29;45.23;;;21.60;;
7128;SDS011;3606;52.930;8.644;2022-11-22T05:10:55;37.77;;;19.73;;
7128;SDS011;3606;52.930;8.644;2022-11-22T05:13:24;42.30;;;20.43;;
7128;SDS011;3606;52.930;8.644;2022-11-22T05:15:52;43.67;;;20.37;;
7128;SDS011;3606;52.930;8.644;2022-11-22T05:18:18;40.90;;;20.83;;
7128;SDS011;3606;52.930;8.644;2022-11-22T05:20:45;45.07;;;21.87;;
7128;SDS011;3606;52.930;8.644;2022-11-22T05:23:11;48.40;;;22.70;;
7128;SDS011;3606;52.930;8.644;2022-11-22T05:25:55;38.83;;;20.67;;
7128;SDS011;3606;52.930;8.644;2022-11-22T05:28:21;37.47;;;19.50;;
7128;SDS011;3606;52.930;8.644;2022-11-22T05:30:47;36.83;;;20.10;;
7128;SDS011;3606;52.930;8.644;2022-11-22T05:33:12;50.57;;;20.93;;
7128;SDS011;3606;52.930;8.644;2022-11-22T05:35:38;43.63;;;21.63;;
7128;SDS011;3606;52.930;8.644;2022-11-22T05:38:03;37.20;;;19.20;;
7128;SDS011;3606;52.930;8.644;2022-11-22T05:40:29;40.63;;;19.80;;
7128;SDS011;3606;52.930;8.644;2022-11-22T05:42:55;40.40;;;20.33;;
7128;SDS011;3606;52.930;8.644;2022-11-22T05:45:21;41.10;;;21.77;;
7128;SDS011;3606;52.930;8.644;2022-11-22T05:47:47;42.43;;;22.37;;
7128;SDS011;3606;52.930;8.644;2022-11-22T05:50:12;43.90;;;21.70;;
7128;SDS011;3606;52.930;8.644;2022-11-22T05:52:38;39.67;;;21.83;;
7128;SDS011;3606;52.930;8.644;2022-11-22T05:55:03;47.90;;;22.90;;
7128;SDS011;3606;52.930;8.644;2022-11-22T05:57:30;36.07;;;19.43;;
7128;SDS011;3606;52.930;8.644;2022-11-22T05:59:57;38.83;;;20.53;;
7128;SDS011;3606;52.930;8.644;2022-11-22T06:02:22;41.03;;;21.20;;
7128;SDS011;3606;52.930;8.644;2022-11-22T06:04:48;34.63;;;19.43;;
7128;SDS011;3606;52.930;8.644;2022-11-22T06:07:13;41.20;;;21.40;;
7128;SDS011;3606;52.930;8.644;2022-11-22T06:09:39;35.17;;;20.13;;
7128;SDS011;3606;52.930;8.644;2022-11-22T06:12:05;33.93;;;20.07;;
7128;SDS011;3606;52.930;8.644;2022-11-22T06:14:31;41.77;;;20.30;;
7128;SDS011;3606;52.930;8.644;2022-11-22T06:16:56;35.50;;;20.63;;
7128;SDS011;3606;52.930;8.644;2022-11-22T06:19:22;36.70;;;20.53;;
7128;SDS011;3606;52.930;8.644;2022-11-22T06:21:47;39.00;;;20.57;;
7128;SDS011;3606;52.930;8.644;2022-11-22T06:24:13;39.57;;;20.90;;
7128;SDS011;3606;52.930;8.644;2022-11-22T06:26:38;34.57;;;20.47;;
7128;SDS011;3606;52.930;8.644;2022-11-22T06:29:04;35.47;;;19.23;;
7128;SDS011;3606;52.930;8.644;2022-11-22T06:31:30;34.13;;;20.03;;
7128;SDS011;3606;52.930;8.644;2022-11-22T06:33:56;41.90;;;19.97;;
7128;SDS011;3606;52.930;8.644;2022-11-22T06:36:27;40.83;;;20.50;;
7128;SDS011;3606;52.930;8.644;2022-11-22T06:38:54;42.87;;;20.90;;
7128;SDS011;3606;52.930;8.644;2022-11-22T06:41:22;41.13;;;20.73;;
7128;SDS011;3606;52.930;8.644;2022-11-22T06:43:50;41.57;;;20.33;;
7128;SDS011;3606;52.930;8.644;2022-11-22T06:46:18;38.27;;;21.13;;
7128;SDS011;3606;52.930;8.644;2022-11-22T06:48:45;46.90;;;20.93;;
7128;SDS011;3606;52.930;8.644;2022-11-22T06:51:21;44.67;;;19.37;;
7128;SDS011;3606;52.930;8.644;2022-11-22T06:53:49;37.57;;;20.87;;
7128;SDS011;3606;52.930;8.644;2022-11-22T06:56:16;40.60;;;20.17;;
7128;SDS011;3606;52.930;8.644;2022-11-22T06:58:53;38.77;;;18.50;;
7128;SDS011;3606;52.930;8.644;2022-11-22T07:01:21;42.53;;;20.50;;
7128;SDS011;3606;52.930;8.644;2022-11-22T07:03:48;40.73;;;20.03;;
7128;SDS011;3606;52.930;8.644;2022-11-22T07:06:15;40.17;;;21.50;;
7128;SDS011;3606;52.930;8.644;2022-11-22T07:08:42;36.37;;;21.00;;
7128;SDS011;3606;52.930;8.644;2022-11-22T07:11:09;34.73;;;21.03;;
7128;SDS011;3606;52.930;8.644;2022-11-22T07:13:36;35.57;;;19.60;;
7128;SDS011;3606;52.930;8.644;2022-11-22T07:16:03;36.93;;;19.70;;
7128;SDS011;3606;52.930;8.644;2022-11-22T07:18:30;37.97;;;19.23;;
7128;SDS011;3606;52.930;8.644;2022-11-22T07:21:00;32.93;;;19.30;;
7128;SDS011;3606;52.930;8.644;2022-11-22T07:23:28;43.40;;;20.60;;
7128;SDS011;3606;52.930;8.644;2022-11-22T07:25:54;34.37;;;20.40;;
7128;SDS011;3606;52.930;8.644;2022-11-22T07:28:19;40.20;;;20.53;;
7128;SDS011;3606;52.930;8.644;2022-11-22T07:30:45;44.17;;;20.37;;
7128;SDS011;3606;52.930;8.644;2022-11-22T07:33:11;38.20;;;19.90;;
7128;SDS011;3606;52.930;8.644;2022-11-22T07:35:36;37.77;;;19.63;;
7128;SDS011;3606;52.930;8.644;2022-11-22T07:38:02;37.07;;;20.00;;
7128;SDS011;3606;52.930;8.644;2022-11-22T07:40:28;35.57;;;19.10;;
7128;SDS011;3606;52.930;8.644;2022-11-22T07:42:53;36.23;;;20.07;;
7128;SDS011;3606;52.930;8.644;2022-11-22T07:45:19;42.47;;;20.67;;
7128;SDS011;3606;52.930;8.644;2022-11-22T07:47:45;43.53;;;21.00;;
7128;SDS011;3606;52.930;8.644;2022-11-22T07:50:10;34.03;;;18.60;;
7128;SDS011;3606;52.930;8.644;2022-11-22T07:52:36;37.13;;;20.77;;
7128;SDS011;3606;52.930;8.644;2022-11-22T07:55:02;35.80;;;18.87;;
7128;SDS011;3606;52.930;8.644;2022-11-22T07:57:30;37.10;;;18.67;;
7128;SDS011;3606;52.930;8.644;2022-11-22T07:59:56;39.33;;;20.17;;
7128;SDS011;3606;52.930;8.644;2022-11-22T08:02:21;39.40;;;19.77;;
7128;SDS011;3606;52.930;8.644;2022-11-22T08:04:47;34.90;;;19.47;;
7128;SDS011;3606;52.930;8.644;2022-11-22T08:07:13;33.23;;;20.07;;
7128;SDS011;3606;52.930;8.644;2022-11-22T08:09:38;36.73;;;19.73;;
7128;SDS011;3606;52.930;8.644;2022-11-22T08:12:04;39.70;;;19.97;;
7128;SDS011;3606;52.930;8.644;2022-11-22T08:14:29;33.83;;;18.57;;
7128;SDS011;3606;52.930;8.644;2022-11-22T08:16:55;34.13;;;19.37;;
7128;SDS011;3606;52.930;8.644;2022-11-22T08:19:21;37.70;;;19.53;;
7128;SDS011;3606;52.930;8.644;2022-11-22T08:21:47;39.43;;;20.40;;
7128;SDS011;3606;52.930;8.644;2022-11-22T08:24:13;39.10;;;19.17;;
7128;SDS011;3606;52.930;8.644;2022-11-22T08:26:39;34.57;;;19.57;;
7128;SDS011;3606;52.930;8.644;2022-11-22T08:29:07;35.30;;;20.73;;
7128;SDS011;3606;52.930;8.644;2022-11-22T08:31:35;36.57;;;19.83;;
7128;SDS011;3606;52.930;8.644;2022-11-22T08:34:01;33.90;;;19.10;;
7128;SDS011;3606;52.930;8.644;2022-11-22T08:36:26;41.03;;;20.20;;
7128;SDS011;3606;52.930;8.644;2022-11-22T08:38:52;34.97;;;18.80;;
7128;SDS011;3606;52.930;8.644;2022-11-22T08:41:18;32.03;;;18.83;;
7128;SDS011;3606;52.930;8.644;2022-11-22T08:43:44;33.83;;;18.30;;
7128;SDS011;3606;52.930;8.644;2022-11-22T08:46:09;32.83;;;19.43;;
7128;SDS011;3606;52.930;8.644;2022-11-22T08:48:35;37.13;;;19.33;;
7128;SDS011;3606;52.930;8.644;2022-11-22T08:51:05;29.30;;;17.40;;
7128;SDS011;3606;52.930;8.644;2022-11-22T08:53:33;33.13;;;17.47;;
7128;SDS011;3606;52.930;8.644;2022-11-22T08:56:00;35.93;;;17.83;;
7128;SDS011;3606;52.930;8.644;2022-11-22T08:58:28;34.10;;;17.53;;
7128;SDS011;3606;52.930;8.644;2022-11-22T09:00:55;33.30;;;17.63;;
7128;SDS011;3606;52.930;8.644;2022-11-22T09:03:21;31.43;;;17.33;;
7128;SDS011;3606;52.930;8.644;2022-11-22T09:05:46;31.80;;;17.70;;
7128;SDS011;3606;52.930;8.644;2022-11-22T09:08:12;32.77;;;17.67;;
7128;SDS011;3606;52.930;8.644;2022-11-22T09:10:38;32.73;;;16.77;;
7128;SDS011;3606;52.930;8.644;2022-11-22T09:13:03;33.03;;;17.87;;
7128;SDS011;3606;52.930;8.644;2022-11-22T09:15:29;31.77;;;17.63;;
7128;SDS011;3606;52.930;8.644;2022-11-22T09:18:01;31.83;;;17.70;;
7128;SDS011;3606;52.930;8.644;2022-11-22T09:20:27;34.30;;;17.00;;
7128;SDS011;3606;52.930;8.644;2022-11-22T09:22:52;29.47;;;17.30;;
7128;SDS011;3606;52.930;8.644;2022-11-22T09:25:18;27.73;;;16.03;;
7128;SDS011;3606;52.930;8.644;2022-11-22T09:27:43;29.10;;;16.27;;
7128;SDS011;3606;52.930;8.644;2022-11-22T09:30:09;28.40;;;16.77;;
7128;SDS011;3606;52.930;8.644;2022-11-22T09:32:35;24.10;;;15.17;;
7128;SDS011;3606;52.930;8.644;2022-11-22T09:35:01;26.60;;;16.47;;
7128;SDS011;3606;52.930;8.644;2022-11-22T09:37:26;27.93;;;16.40;;
7128;SDS011;3606;52.930;8.644;2022-11-22T09:39:52;29.73;;;15.40;;
7128;SDS011;3606;52.930;8.644;2022-11-22T09:53:03;25.77;;;15.43;;
7128;SDS011;3606;52.930;8.644;2022-11-22T09:55:41;25.80;;;14.23;;
7128;SDS011;3606;52.930;8.644;2022-11-22T09:58:25;25.97;;;15.23;;
7128;SDS011;3606;52.930;8.644;2022-11-22T10:00:57;23.33;;;13.80;;
7128;SDS011;3606;52.930;8.644;2022-11-22T10:03:44;20.90;;;12.80;;
7128;SDS011;3606;52.930;8.644;2022-11-22T10:06:28;22.23;;;12.77;;
7128;SDS011;3606;52.930;8.644;2022-11-22T10:09:15;20.37;;;12.57;;
7128;SDS011;3606;52.930;8.644;2022-11-22T10:11:45;18.43;;;11.90;;
7128;SDS011;3606;52.930;8.644;2022-11-22T10:14:39;24.47;;;12.40;;
7128;SDS011;3606;52.930;8.644;2022-11-22T10:19:49;18.70;;;11.53;;
7128;SDS011;3606;52.930;8.644;2022-11-22T10:22:27;21.37;;;11.03;;
7128;SDS011;3606;52.930;8.644;2022-11-22T10:24:54;18.60;;;10.83;;
7128;SDS011;3606;52.930;8.644;2022-11-22T10:27:22;15.73;;;10.73;;
7128;SDS011;3606;52.930;8.644;2022-11-22T10:29:54;15.07;;;10.63;;
7128;SDS011;3606;52.930;8.644;2022-11-22T10:32:37;18.00;;;10.93;;
7128;SDS011;3606;52.930;8.644;2022-11-22T10:35:13;16.27;;;10.80;;
7128;SDS011;3606;52.930;8.644;2022-11-22T10:41:10;15.43;;;9.27;;
7128;SDS011;3606;52.930;8.644;2022-11-22T10:43:43;11.00;;;8.67;;
7128;SDS011;3606;52.930;8.644;2022-11-22T10:49:21;17.33;;;9.57;;
7128;SDS011;3606;52.930;8.644;2022-11-22T10:52:05;15.87;;;9.40;;
7128;SDS011;3606;52.930;8.644;2022-11-22T10:54:47;15.37;;;8.80;;
7128;SDS011;3606;52.930;8.644;2022-11-22T10:57:31;12.47;;;7.93;;
7128;SDS011;3606;52.930;8.644;2022-11-22T11:00:18;14.60;;;7.97;;
7128;SDS011;3606;52.930;8.644;2022-11-22T11:05:53;12.43;;;8.27;;
7128;SDS011;3606;52.930;8.644;2022-11-22T11:08:28;13.43;;;7.87;;
7128;SDS011;3606;52.930;8.644;2022-11-22T11:11:00;13.23;;;9.00;;
7128;SDS011;3606;52.930;8.644;2022-11-22T11:13:43;12.57;;;8.57;;
7128;SDS011;3606;52.930;8.644;2022-11-22T11:16:14;10.63;;;7.77;;
7128;SDS011;3606;52.930;8.644;2022-11-22T11:18:48;9.60;;;7.47;;
7128;SDS011;3606;52.930;8.644;2022-11-22T11:21:16;10.70;;;7.57;;
7128;SDS011;3606;52.930;8.644;2022-11-22T11:23:45;9.57;;;7.37;;
7128;SDS011;3606;52.930;8.644;2022-11-22T11:26:28;10.03;;;6.97;;
7128;SDS011;3606;52.930;8.644;2022-11-22T11:32:06;10.90;;;6.83;;
7128;SDS011;3606;52.930;8.644;2022-11-22T11:34:43;10.83;;;6.20;;
7128;SDS011;3606;52.930;8.644;2022-11-22T11:37:35;10.57;;;7.50;;
7128;SDS011;3606;52.930;8.644;2022-11-22T11:40:31;9.90;;;7.17;;
7128;SDS011;3606;52.930;8.644;2022-11-22T11:43:13;11.03;;;6.87;;
7128;SDS011;3606;52.930;8.644;2022-11-22T11:45:42;11.83;;;6.70;;
7128;SDS011;3606;52.930;8.644;2022-11-22T11:51:19;8.97;;;6.87;;
7128;SDS011;3606;52.930;8.644;2022-11-22T11:54:33;8.67;;;6.33;;
7128;SDS011;3606;52.930;8.644;2022-11-22T11:57:12;8.87;;;6.50;;
7128;SDS011;3606;52.930;8.644;2022-11-22T12:05:00;9.07;;;5.87;;
7128;SDS011;3606;52.930;8.644;2022-11-22T12:07:45;11.00;;;5.97;;
7128;SDS011;3606;52.930;8.644;2022-11-22T12:10:32;6.83;;;5.37;;
7128;SDS011;3606;52.930;8.644;2022-11-22T12:13:29;12.50;;;6.20;;
7128;SDS011;3606;52.930;8.644;2022-11-22T12:16:10;10.13;;;5.60;;
7128;SDS011;3606;52.930;8.644;2022-11-22T12:27:21;8.40;;;6.40;;
7128;SDS011;3606;52.930;8.644;2022-11-22T12:29:50;12.97;;;7.60;;
7128;SDS011;3606;52.930;8.644;2022-11-22T12:32:22;9.10;;;6.43;;
7128;SDS011;3606;52.930;8.644;2022-11-22T12:35:04;11.90;;;7.07;;
7128;SDS011;3606;52.930;8.644;2022-11-22T12:40:30;9.00;;;6.73;;
7128;SDS011;3606;52.930;8.644;2022-11-22T12:43:35;11.33;;;7.17;;
7128;SDS011;3606;52.930;8.644;2022-11-22T12:46:27;11.70;;;7.40;;
7128;SDS011;3606;52.930;8.644;2022-11-22T12:49:09;10.63;;;6.67;;
7128;SDS011;3606;52.930;8.644;2022-11-22T12:52:31;10.33;;;6.60;;
7128;SDS011;3606;52.930;8.644;2022-11-22T13:01:38;10.57;;;6.77;;
7128;SDS011;3606;52.930;8.644;2022-11-22T13:04:15;10.17;;;6.50;;
7128;SDS011;3606;52.930;8.644;2022-11-22T13:06:53;10.53;;;7.03;;
7128;SDS011;3606;52.930;8.644;2022-11-22T13:12:04;11.83;;;6.87;;
7128;SDS011;3606;52.930;8.644;2022-11-22T13:14:44;11.37;;;7.10;;
7128;SDS011;3606;52.930;8.644;2022-11-22T13:17:23;9.87;;;7.23;;
7128;SDS011;3606;52.930;8.644;2022-11-22T13:20:33;9.57;;;6.83;;
7128;SDS011;3606;52.930;8.644;2022-11-22T13:22:47;10.93;;;6.20;;
7128;SDS011;3606;52.930;8.644;2022-11-22T13:25:33;10.67;;;6.80;;
7128;SDS011;3606;52.930;8.644;2022-11-22T13:28:01;8.87;;;6.10;;
7128;SDS011;3606;52.930;8.644;2022-11-22T13:30:35;9.67;;;5.80;;
7128;SDS011;3606;52.930;8.644;2022-11-22T13:33:03;8.90;;;6.17;;
7128;SDS011;3606;52.930;8.644;2022-11-22T13:35:34;13.13;;;6.20;;
7128;SDS011;3606;52.930;8.644;2022-11-22T13:38:01;7.30;;;5.80;;
7128;SDS011;3606;52.930;8.644;2022-11-22T13:40:47;12.73;;;6.20;;
7128;SDS011;3606;52.930;8.644;2022-11-22T13:45:47;8.47;;;6.07;;
7128;SDS011;3606;52.930;8.644;2022-11-22T13:51:03;9.57;;;5.97;;
7128;SDS011;3606;52.930;8.644;2022-11-22T13:53:35;10.63;;;5.73;;
7128;SDS011;3606;52.930;8.644;2022-11-22T14:04:46;8.30;;;6.37;;
7128;SDS011;3606;52.930;8.644;2022-11-22T14:23:01;13.83;;;6.87;;
7128;SDS011;3606;52.930;8.644;2022-11-22T14:28:12;9.03;;;6.93;;
7128;SDS011;3606;52.930;8.644;2022-11-22T14:30:47;9.57;;;6.47;;
7128;SDS011;3606;52.930;8.644;2022-11-22T14:33:16;10.83;;;7.10;;
7128;SDS011;3606;52.930;8.644;2022-11-22T14:38:42;11.80;;;7.13;;
7128;SDS011;3606;52.930;8.644;2022-11-22T14:44:09;14.67;;;6.50;;
7128;SDS011;3606;52.930;8.644;2022-11-22T14:46:42;8.77;;;6.60;;
7128;SDS011;3606;52.930;8.644;2022-11-22T14:49:23;11.70;;;6.23;;
7128;SDS011;3606;52.930;8.644;2022-11-22T14:51:50;10.67;;;6.70;;
7128;SDS011;3606;52.930;8.644;2022-11-22T14:54:24;9.40;;;6.63;;
7128;SDS011;3606;52.930;8.644;2022-11-22T14:57:08;8.87;;;6.67;;
7128;SDS011;3606;52.930;8.644;2022-11-22T14:59:58;10.30;;;6.70;;
7128;SDS011;3606;52.930;8.644;2022-11-22T15:05:36;10.93;;;6.03;;
7128;SDS011;3606;52.930;8.644;2022-11-22T15:08:30;10.90;;;6.87;;
7128;SDS011;3606;52.930;8.644;2022-11-22T15:12:17;8.97;;;5.83;;
7128;SDS011;3606;52.930;8.644;2022-11-22T15:17:28;14.10;;;6.93;;
7128;SDS011;3606;52.930;8.644;2022-11-22T15:19:55;11.53;;;6.57;;
7128;SDS011;3606;52.930;8.644;2022-11-22T15:22:24;10.43;;;7.03;;
7128;SDS011;3606;52.930;8.644;2022-11-22T15:24:52;9.87;;;6.83;;
7128;SDS011;3606;52.930;8.644;2022-11-22T15:32:41;12.57;;;6.87;;
7128;SDS011;3606;52.930;8.644;2022-11-22T15:35:16;10.73;;;6.77;;
7128;SDS011;3606;52.930;8.644;2022-11-22T15:40:43;10.10;;;6.47;;
7128;SDS011;3606;52.930;8.644;2022-11-22T15:43:18;11.53;;;7.03;;
7128;SDS011;3606;52.930;8.644;2022-11-22T15:45:46;16.20;;;9.83;;
7128;SDS011;3606;52.930;8.644;2022-11-22T15:48:16;11.90;;;7.30;;
7128;SDS011;3606;52.930;8.644;2022-11-22T15:53:37;10.00;;;6.30;;
7128;SDS011;3606;52.930;8.644;2022-11-22T15:56:14;11.27;;;6.43;;
7128;SDS011;3606;52.930;8.644;2022-11-22T15:58:44;8.57;;;6.60;;
7128;SDS011;3606;52.930;8.644;2022-11-22T16:01:13;7.63;;;5.97;;
7128;SDS011;3606;52.930;8.644;2022-11-22T16:03:41;11.37;;;6.37;;
7128;SDS011;3606;52.930;8.644;2022-11-22T16:06:14;12.10;;;7.07;;
7128;SDS011;3606;52.930;8.644;2022-11-22T16:09:03;9.80;;;6.80;;
7128;SDS011;3606;52.930;8.644;2022-11-22T16:11:32;12.50;;;7.10;;
7128;SDS011;3606;52.930;8.644;2022-11-22T16:14:01;11.77;;;7.50;;
7128;SDS011;3606;52.930;8.644;2022-11-22T16:16:28;9.30;;;6.67;;
7128;SDS011;3606;52.930;8.644;2022-11-22T16:24:25;12.73;;;7.37;;
7128;SDS011;3606;52.930;8.644;2022-11-22T16:27:01;13.73;;;7.70;;
7128;SDS011;3606;52.930;8.644;2022-11-22T16:29:35;10.73;;;7.07;;
7128;SDS011;3606;52.930;8.644;2022-11-22T16:32:03;9.50;;;6.83;;
7128;SDS011;3606;52.930;8.644;2022-11-22T16:34:34;14.03;;;7.10;;
7128;SDS011;3606;52.930;8.644;2022-11-22T16:37:00;12.97;;;6.83;;
7128;SDS011;3606;52.930;8.644;2022-11-22T16:39:25;12.57;;;6.80;;
7128;SDS011;3606;52.930;8.644;2022-11-22T16:41:51;9.30;;;6.53;;
7128;SDS011;3606;52.930;8.644;2022-11-22T16:44:17;10.97;;;7.57;;
7128;SDS011;3606;52.930;8.644;2022-11-22T16:46:43;9.33;;;6.53;;
7128;SDS011;3606;52.930;8.644;2022-11-22T16:49:11;14.50;;;7.83;;
7128;SDS011;3606;52.930;8.644;2022-11-22T16:51:43;11.40;;;6.50;;
7128;SDS011;3606;52.930;8.644;2022-11-22T16:54:11;10.63;;;6.80;;
7128;SDS011;3606;52.930;8.644;2022-11-22T16:56:40;10.30;;;6.13;;
7128;SDS011;3606;52.930;8.644;2022-11-22T16:59:07;12.70;;;5.97;;
7128;SDS011;3606;52.930;8.644;2022-11-22T17:01:35;11.07;;;6.13;;
7128;SDS011;3606;52.930;8.644;2022-11-22T17:04:01;10.83;;;6.33;;
7128;SDS011;3606;52.930;8.644;2022-11-22T17:06:29;13.03;;;5.90;;
7128;SDS011;3606;52.930;8.644;2022-11-22T17:08:56;9.70;;;6.20;;
7128;SDS011;3606;52.930;8.644;2022-11-22T17:11:28;10.30;;;5.70;;
7128;SDS011;3606;52.930;8.644;2022-11-22T17:13:55;9.10;;;5.47;;
7128;SDS011;3606;52.930;8.644;2022-11-22T17:16:21;10.77;;;5.70;;